Time;durP1;ratioP1;P1;durP2;ratioP2;P2;SDS_P1;SDS_P2;PMS_P1;PMS_P2;Temp;Humidity;BMP_temperature;BMP_pressure;BME280_temperature;BME280_humidity;BME280_pressure;Samples;Min_cycle;Max_cycle;Signal;HPM_P1;HPM_P2
2022/02/08 00:01:03;;;;;;;9.15;1.90;;;3.60;99.90;;;;;;6218282;23;20140;-62
2022/02/08 00:03:28;;;;;;;10.88;2.70;;;3.60;99.90;;;;;;6218447;23;20148;-61
2022/02/08 00:06:07;;;;;;;12.68;2.30;;;3.60;99.90;;;;;;6218099;23;20137;-60
2022/02/08 00:08:33;;;;;;;13.27;2.22;;;3.50;99.90;;;;;;6218582;23;20132;-60
2022/02/08 00:10:58;;;;;;;15.80;2.80;;;3.60;99.90;;;;;;6218579;23;20145;-61
2022/02/08 00:13:24;;;;;;;13.10;2.60;;;3.50;99.90;;;;;;6218802;23;20155;-61
2022/02/08 00:15:49;;;;;;;18.05;2.80;;;3.50;99.90;;;;;;6218212;23;20148;-61
2022/02/08 00:18:15;;;;;;;12.93;3.10;;;3.50;99.90;;;;;;6217875;23;20148;-62
2022/02/08 00:20:40;;;;;;;12.32;2.88;;;3.50;99.90;;;;;;6218535;23;20137;-61
2022/02/08 00:23:06;;;;;;;13.20;3.13;;;3.50;99.90;;;;;;6218341;23;20156;-61
2022/02/08 00:25:31;;;;;;;18.13;3.40;;;3.50;99.90;;;;;;6217930;23;20576;-61
2022/02/08 00:27:57;;;;;;;25.73;3.63;;;3.50;99.90;;;;;;6219867;23;20165;-61
2022/02/08 00:30:22;;;;;;;15.52;2.85;;;3.60;99.90;;;;;;6217977;23;20141;-61
2022/02/08 00:32:48;;;;;;;13.75;3.33;;;3.60;99.90;;;;;;6219963;23;20137;-61
2022/02/08 00:35:13;;;;;;;13.88;3.25;;;3.60;99.90;;;;;;6220379;23;20144;-61
2022/02/08 00:37:39;;;;;;;16.08;2.65;;;3.60;99.90;;;;;;6220050;23;20137;-61
2022/02/08 00:40:05;;;;;;;14.88;3.17;;;3.60;99.90;;;;;;6219466;23;20141;-61
2022/02/08 00:42:32;;;;;;;11.63;2.90;;;3.70;99.90;;;;;;6219709;23;20236;-61
2022/02/08 00:45:13;;;;;;;18.55;3.60;;;3.70;99.90;;;;;;6219569;23;20215;-60
2022/02/08 00:47:42;;;;;;;14.43;2.50;;;3.70;99.90;;;;;;6219250;23;20273;-60
2022/02/08 00:50:10;;;;;;;17.73;3.15;;;3.70;99.90;;;;;;6219687;23;20549;-62
2022/02/08 00:52:38;;;;;;;10.23;2.90;;;3.70;99.90;;;;;;6218136;23;20545;-61
2022/02/08 00:55:07;;;;;;;12.13;2.83;;;3.80;99.90;;;;;;6217798;23;20176;-62
2022/02/08 00:57:33;;;;;;;18.02;3.63;;;3.80;99.90;;;;;;6218221;23;20149;-61
2022/02/08 00:59:59;;;;;;;10.20;2.83;;;3.80;99.90;;;;;;6218264;23;20576;-60
2022/02/08 01:02:25;;;;;;;23.67;3.45;;;3.80;99.90;;;;;;6218940;23;20517;-62
2022/02/08 01:04:57;;;;;;;13.38;2.72;;;3.90;99.90;;;;;;6218746;23;20149;-62
2022/02/08 01:07:23;;;;;;;10.05;2.55;;;3.90;99.90;;;;;;6218564;23;20179;-62
2022/02/08 01:09:54;;;;;;;11.43;3.00;;;3.90;99.90;;;;;;6218498;23;20148;-62
2022/02/08 01:12:21;;;;;;;18.98;3.17;;;3.90;99.90;;;;;;6218424;23;20140;-62
2022/02/08 01:14:50;;;;;;;9.70;2.65;;;3.90;99.90;;;;;;6218703;23;20149;-61
2022/02/08 01:17:17;;;;;;;13.82;2.97;;;3.90;99.90;;;;;;6218036;23;20222;-62
2022/02/08 01:19:53;;;;;;;13.35;2.70;;;3.90;99.90;;;;;;6218288;23;20163;-61
2022/02/08 01:22:19;;;;;;;9.85;2.40;;;3.90;99.90;;;;;;6218135;23;20487;-62
2022/02/08 01:24:46;;;;;;;15.93;3.10;;;3.90;99.90;;;;;;6218157;23;20249;-61
2022/02/08 01:27:13;;;;;;;12.00;3.17;;;3.80;99.90;;;;;;6218080;23;20169;-62
2022/02/08 01:29:55;;;;;;;14.05;3.45;;;3.80;99.90;;;;;;6217984;23;20506;-61
2022/02/08 01:35:05;;;;;;;13.82;3.08;;;3.80;99.90;;;;;;6218191;23;20125;-62
2022/02/08 01:37:54;;;;;;;15.82;3.30;;;3.80;99.90;;;;;;6218481;23;20533;-62
2022/02/08 01:45:55;;;;;;;15.77;3.33;;;3.80;99.90;;;;;;6220684;23;20179;-61
2022/02/08 01:48:40;;;;;;;9.32;3.45;;;3.80;99.90;;;;;;6220366;23;20143;-60
2022/02/08 01:51:06;;;;;;;11.30;2.85;;;3.80;99.90;;;;;;6220792;23;20133;-61
2022/02/08 01:53:32;;;;;;;12.77;3.25;;;3.80;99.90;;;;;;6220744;23;20136;-61
2022/02/08 01:55:58;;;;;;;11.88;3.10;;;3.90;99.90;;;;;;6220268;23;20195;-61
2022/02/08 01:58:23;;;;;;;9.27;2.78;;;3.90;99.90;;;;;;6220227;23;20152;-61
2022/02/08 02:00:49;;;;;;;12.98;3.10;;;4.00;99.90;;;;;;6220804;23;20148;-61
2022/02/08 02:03:15;;;;;;;7.35;2.30;;;4.00;99.90;;;;;;6221066;23;20148;-61
2022/02/08 02:05:40;;;;;;;13.18;3.30;;;4.10;99.90;;;;;;6220318;23;20440;-61
2022/02/08 02:08:06;;;;;;;12.82;3.25;;;4.10;99.90;;;;;;6219668;23;20185;-61
2022/02/08 02:10:32;;;;;;;12.38;2.85;;;4.20;99.90;;;;;;6220282;23;20207;-61
2022/02/08 02:13:00;;;;;;;9.02;2.97;;;4.20;99.90;;;;;;6220822;23;20156;-61
2022/02/08 02:15:26;;;;;;;15.10;2.55;;;4.20;99.90;;;;;;6220175;23;20195;-61
2022/02/08 02:17:52;;;;;;;11.20;2.92;;;4.20;99.90;;;;;;6218582;23;20447;-61
2022/02/08 02:20:18;;;;;;;14.32;3.28;;;4.30;99.90;;;;;;6218273;23;20145;-61
2022/02/08 02:22:44;;;;;;;12.80;3.03;;;4.30;99.90;;;;;;6218203;23;20553;-61
2022/02/08 02:25:20;;;;;;;11.00;3.15;;;4.40;99.90;;;;;;6217919;23;20156;-62
2022/02/08 02:27:48;;;;;;;12.15;2.55;;;4.40;99.90;;;;;;6218213;23;20600;-60
2022/02/08 02:30:14;;;;;;;15.90;2.63;;;4.40;99.90;;;;;;6217149;23;20144;-62
2022/02/08 02:32:40;;;;;;;8.25;2.60;;;4.40;99.90;;;;;;6218115;23;20203;-62
2022/02/08 02:35:06;;;;;;;13.45;2.88;;;4.40;99.90;;;;;;6216927;23;20145;-61
2022/02/08 02:37:31;;;;;;;11.63;2.80;;;4.40;99.90;;;;;;6218781;23;20218;-61
2022/02/08 02:39:57;;;;;;;13.82;2.58;;;4.50;99.90;;;;;;6217899;23;20149;-62
2022/02/08 02:42:22;;;;;;;8.38;2.42;;;4.50;99.90;;;;;;6217902;23;20141;-62
2022/02/08 02:44:48;;;;;;;8.68;2.63;;;4.50;99.90;;;;;;6218418;23;20152;-61
2022/02/08 02:47:13;;;;;;;11.75;3.05;;;4.50;99.90;;;;;;6216840;23;20171;-62
2022/02/08 02:49:39;;;;;;;10.25;2.45;;;4.50;99.90;;;;;;6218245;23;20157;-60
2022/02/08 02:52:07;;;;;;;10.68;2.80;;;4.50;99.90;;;;;;6217914;23;20141;-62
2022/02/08 02:54:32;;;;;;;11.05;2.55;;;4.50;99.90;;;;;;6218402;23;20444;-60
2022/02/08 02:57:00;;;;;;;9.50;2.63;;;4.50;99.90;;;;;;6218063;23;20158;-60
2022/02/08 02:59:26;;;;;;;12.65;3.25;;;4.50;99.90;;;;;;6218392;23;20145;-60
2022/02/08 03:02:15;;;;;;;10.25;2.65;;;4.50;99.90;;;;;;6218166;23;20231;-60
2022/02/08 03:20:49;;;;;;;7.32;2.42;;;4.60;99.90;;;;;;6220069;23;20210;-61
2022/02/08 03:23:15;;;;;;;7.93;2.03;;;4.60;99.90;;;;;;6219583;23;20152;-61
2022/02/08 03:25:41;;;;;;;5.47;2.13;;;4.60;99.90;;;;;;6219546;23;20145;-61
2022/02/08 03:28:07;;;;;;;9.18;2.85;;;4.60;99.90;;;;;;6220124;23;20173;-61
2022/02/08 03:30:33;;;;;;;9.38;2.08;;;4.60;99.90;;;;;;6219662;23;20152;-61
2022/02/08 03:32:58;;;;;;;7.90;1.88;;;4.70;99.90;;;;;;6219692;23;20147;-61
2022/02/08 03:35:24;;;;;;;11.80;2.15;;;4.70;99.90;;;;;;6219745;23;20145;-61
2022/02/08 03:37:57;;;;;;;8.18;1.90;;;4.70;99.90;;;;;;6219995;23;20175;-61
2022/02/08 03:43:13;;;;;;;11.70;2.30;;;4.70;99.90;;;;;;6220210;23;20524;-60
2022/02/08 03:45:45;;;;;;;8.82;1.90;;;4.80;99.90;;;;;;6219885;23;20152;-62
2022/02/08 03:48:13;;;;;;;8.93;2.05;;;4.80;99.90;;;;;;6219556;23;20586;-62
2022/02/08 03:50:39;;;;;;;6.28;2.00;;;4.80;99.90;;;;;;6220139;23;20439;-61
2022/02/08 03:53:04;;;;;;;7.45;2.30;;;4.80;99.90;;;;;;6220551;23;20147;-61
2022/02/08 03:55:30;;;;;;;7.50;2.33;;;4.80;99.90;;;;;;6219467;23;20148;-61
2022/02/08 03:57:55;;;;;;;8.82;2.15;;;4.80;99.90;;;;;;6218949;23;20160;-61
2022/02/08 04:00:22;;;;;;;7.72;2.50;;;4.80;99.90;;;;;;6219098;23;20141;-61
2022/02/08 04:02:52;;;;;;;8.45;2.47;;;4.80;99.90;;;;;;6219240;23;20148;-61
2022/02/08 04:05:27;;;;;;;7.38;2.20;;;4.70;99.90;;;;;;6219296;23;20159;-60
2022/02/08 04:07:57;;;;;;;8.68;2.50;;;4.70;99.90;;;;;;6219352;23;20156;-61
2022/02/08 04:10:26;;;;;;;8.55;2.80;;;4.70;99.90;;;;;;6219612;23;20567;-61
2022/02/08 04:15:47;;;;;;;6.53;2.22;;;4.70;99.90;;;;;;6221379;23;20131;-61
2022/02/08 04:18:33;;;;;;;7.65;2.58;;;4.70;99.90;;;;;;6223677;23;20144;-61
2022/02/08 04:32:17;;;;;;;6.63;2.72;;;4.70;99.90;;;;;;6224847;23;20171;-61
2022/02/08 04:40:31;;;;;;;9.15;3.20;;;4.50;99.90;;;;;;6226718;23;20145;-62
2022/02/08 04:50:20;;;;;;;8.27;3.42;;;4.50;99.90;;;;;;6222909;23;20553;-61
2022/02/08 04:52:47;;;;;;;11.48;3.70;;;4.50;99.90;;;;;;6223419;23;20145;-61
2022/02/08 05:00:33;;;;;;;7.15;4.00;;;4.50;99.90;;;;;;6222562;23;20144;-61
2022/02/08 05:35:39;;;;;;;14.00;6.53;;;5.20;99.90;;;;;;6223082;23;20536;-61
2022/02/08 05:46:43;;;;;;;13.48;6.55;;;5.30;99.90;;;;;;6219859;23;20472;-61
2022/02/08 05:48:52;;;;;;;12.93;7.50;;;5.40;99.90;;;;;;6220768;23;20557;-61
2022/02/08 05:51:32;;;;;;;14.40;7.25;;;5.40;99.90;;;;;;6220815;23;20141;-61
2022/02/08 05:53:58;;;;;;;12.95;6.30;;;5.40;99.90;;;;;;6221670;23;20133;-61
2022/02/08 05:56:23;;;;;;;13.75;6.90;;;5.40;99.90;;;;;;6220252;23;20141;-61
2022/02/08 05:58:50;;;;;;;13.65;7.18;;;5.40;99.90;;;;;;6219822;23;20144;-61
2022/02/08 06:01:15;;;;;;;14.93;6.90;;;5.40;99.90;;;;;;6220909;23;20144;-61
2022/02/08 06:03:41;;;;;;;17.42;7.20;;;5.40;99.90;;;;;;6220576;23;20429;-61
2022/02/08 06:06:07;;;;;;;21.25;8.55;;;5.40;99.90;;;;;;6219454;23;20568;-61
2022/02/08 06:08:32;;;;;;;15.57;8.10;;;5.40;99.90;;;;;;6219176;23;20136;-61
2022/02/08 06:11:04;;;;;;;15.13;7.32;;;5.50;99.90;;;;;;6218532;23;20137;-61
2022/02/08 06:13:30;;;;;;;15.45;8.05;;;5.50;99.90;;;;;;6220180;23;20427;-62
2022/02/08 06:16:04;;;;;;;18.88;8.07;;;5.50;99.90;;;;;;6220537;23;20168;-61
2022/02/08 06:18:31;;;;;;;13.82;8.18;;;5.50;99.90;;;;;;6219595;23;20125;-61
2022/02/08 06:20:57;;;;;;;16.65;7.72;;;5.50;99.90;;;;;;6220701;23;20141;-62
2022/02/08 06:23:22;;;;;;;12.98;7.15;;;5.50;99.90;;;;;;6220105;23;20191;-61
2022/02/08 06:25:48;;;;;;;14.05;8.27;;;5.50;99.90;;;;;;6219336;23;20141;-61
2022/02/08 06:28:14;;;;;;;14.82;8.13;;;5.60;99.90;;;;;;6217913;23;20179;-61
2022/02/08 06:30:39;;;;;;;17.52;8.15;;;5.60;99.90;;;;;;6218027;23;20183;-61
2022/02/08 06:33:06;;;;;;;21.00;8.63;;;5.60;99.90;;;;;;6217617;23;20126;-61
2022/02/08 06:35:33;;;;;;;18.33;8.25;;;5.60;99.90;;;;;;6217443;23;20141;-61
2022/02/08 06:38:00;;;;;;;17.73;8.27;;;5.60;99.90;;;;;;6218076;23;20151;-61
2022/02/08 06:40:26;;;;;;;21.98;8.27;;;5.60;99.90;;;;;;6219155;23;20179;-61
2022/02/08 06:42:57;;;;;;;20.50;9.52;;;5.50;99.90;;;;;;6218154;23;20141;-61
2022/02/08 06:45:23;;;;;;;21.83;9.38;;;5.50;99.90;;;;;;6218315;23;20142;-61
2022/02/08 06:47:51;;;;;;;18.55;9.55;;;5.50;99.90;;;;;;6217838;23;20183;-61
2022/02/08 06:50:17;;;;;;;22.08;9.30;;;5.50;99.90;;;;;;6218544;23;20573;-61
2022/02/08 06:52:42;;;;;;;19.15;9.07;;;5.50;99.90;;;;;;6222723;23;20433;-61
2022/02/08 06:55:09;;;;;;;18.35;8.70;;;5.50;99.90;;;;;;6221949;23;20147;-61
2022/02/08 06:57:48;;;;;;;21.00;9.50;;;5.50;99.90;;;;;;6222687;23;20227;-63
2022/02/08 07:00:17;;;;;;;20.40;9.30;;;5.50;99.90;;;;;;6223049;23;20534;-62
2022/02/08 07:02:43;;;;;;;18.38;10.02;;;5.50;99.90;;;;;;6223184;23;20155;-63
2022/02/08 07:05:08;;;;;;;17.48;9.10;;;5.50;99.90;;;;;;6222350;23;20169;-63
2022/02/08 07:07:34;;;;;;;18.30;9.38;;;5.60;99.90;;;;;;6220408;23;20231;-63
2022/02/08 07:09:59;;;;;;;21.80;10.15;;;5.60;99.90;;;;;;6218116;23;20145;-62
2022/02/08 07:12:25;;;;;;;20.88;9.57;;;5.70;99.90;;;;;;6216224;23;20145;-62
2022/02/08 07:14:50;;;;;;;20.05;9.13;;;5.70;99.90;;;;;;6215944;23;20137;-63
2022/02/08 07:17:16;;;;;;;17.55;9.70;;;5.70;99.90;;;;;;6217413;23;20550;-63
2022/02/08 07:19:41;;;;;;;22.35;10.10;;;5.80;99.90;;;;;;6217416;23;20141;-62
2022/02/08 07:22:07;;;;;;;20.90;9.95;;;5.80;99.90;;;;;;6216588;23;20141;-62
2022/02/08 07:24:32;;;;;;;19.73;9.63;;;5.80;99.90;;;;;;6216774;23;20206;-63
2022/02/08 07:26:58;;;;;;;17.90;9.45;;;5.90;99.90;;;;;;6216425;23;20177;-63
2022/02/08 07:29:27;;;;;;;20.42;9.50;;;5.90;99.90;;;;;;6216311;23;20145;-62
2022/02/08 07:31:57;;;;;;;21.77;10.68;;;5.90;99.90;;;;;;6215854;23;20523;-63
2022/02/08 07:34:40;;;;;;;20.50;9.70;;;5.90;99.90;;;;;;6216272;23;20142;-63
2022/02/08 07:37:15;;;;;;;24.85;10.18;;;6.00;99.90;;;;;;6216446;23;20201;-63
2022/02/08 07:39:46;;;;;;;23.13;9.77;;;6.00;99.90;;;;;;6217202;23;20129;-63
2022/02/08 07:42:12;;;;;;;19.58;10.75;;;6.00;99.90;;;;;;6216543;23;20607;-64
2022/02/08 07:44:37;;;;;;;21.95;10.52;;;6.00;99.90;;;;;;6216084;23;20169;-63
2022/02/08 07:47:03;;;;;;;18.67;10.98;;;6.00;99.90;;;;;;6215926;23;20628;-64
2022/02/08 07:49:31;;;;;;;21.02;11.65;;;6.10;99.90;;;;;;6216066;23;20211;-64
2022/02/08 07:51:57;;;;;;;20.80;11.02;;;6.10;99.90;;;;;;6217552;23;20145;-63
2022/02/08 07:54:22;;;;;;;21.33;11.40;;;6.10;99.90;;;;;;6218200;23;20488;-63
2022/02/08 07:56:48;;;;;;;18.10;10.95;;;6.20;99.90;;;;;;6218041;23;20141;-63
2022/02/08 07:59:14;;;;;;;23.50;11.73;;;6.20;99.90;;;;;;6217836;23;20477;-63
2022/02/08 08:01:39;;;;;;;22.75;12.00;;;6.20;99.90;;;;;;6218259;23;20145;-62
2022/02/08 08:04:05;;;;;;;23.20;12.18;;;6.30;99.90;;;;;;6217232;23;20452;-63
2022/02/08 08:06:31;;;;;;;19.55;11.70;;;6.30;99.90;;;;;;6217278;23;20211;-63
2022/02/08 08:08:57;;;;;;;22.17;11.52;;;6.40;99.90;;;;;;6217603;23;20148;-62
2022/02/08 08:11:23;;;;;;;27.67;11.73;;;6.40;99.90;;;;;;6217618;23;20164;-62
2022/02/08 08:16:37;;;;;;;22.45;12.63;;;6.50;99.90;;;;;;6217889;23;20542;-63
2022/02/08 08:19:18;;;;;;;19.95;11.60;;;6.60;99.90;;;;;;6216762;23;20319;-63
2022/02/08 08:21:43;;;;;;;24.48;11.63;;;6.70;99.90;;;;;;6219847;23;20181;-63
2022/02/08 08:24:09;;;;;;;23.33;10.48;;;6.70;99.90;;;;;;6221240;23;20499;-63
2022/02/08 08:26:36;;;;;;;16.05;10.32;;;6.80;99.90;;;;;;6220799;23;20168;-62
2022/02/08 08:29:01;;;;;;;17.70;10.15;;;6.90;99.90;;;;;;6220406;23;20141;-63
2022/02/08 08:31:27;;;;;;;17.02;9.77;;;7.00;99.90;;;;;;6219273;23;20160;-63
2022/02/08 08:33:52;;;;;;;17.10;9.43;;;7.10;99.90;;;;;;6219382;23;20295;-62
2022/02/08 08:36:18;;;;;;;13.48;8.55;;;7.10;99.90;;;;;;6219295;23;20633;-63
2022/02/08 08:38:49;;;;;;;15.25;8.15;;;7.20;99.90;;;;;;6219629;23;20418;-63
2022/02/08 08:41:24;;;;;;;14.52;8.10;;;7.30;99.90;;;;;;6219324;23;20452;-62
2022/02/08 08:49:30;;;;;;;11.88;6.78;;;7.50;99.90;;;;;;6217222;23;20139;-63
2022/02/08 08:51:57;;;;;;;10.90;6.28;;;7.60;99.90;;;;;;6217303;23;20129;-63
2022/02/08 08:54:23;;;;;;;11.50;6.32;;;7.60;99.90;;;;;;6217430;23;20152;-64
2022/02/08 08:56:49;;;;;;;9.43;6.25;;;7.70;99.90;;;;;;6217246;23;20144;-63
2022/02/08 08:59:16;;;;;;;8.93;5.72;;;7.80;99.90;;;;;;6217923;23;20234;-63
2022/02/08 09:01:42;;;;;;;8.20;5.35;;;7.80;99.90;;;;;;6218430;23;20154;-63
2022/02/08 09:04:08;;;;;;;10.75;6.10;;;7.80;99.90;;;;;;6217785;23;20184;-63
2022/02/08 09:06:35;;;;;;;10.13;5.60;;;7.90;99.90;;;;;;6218398;23;20176;-63
2022/02/08 09:09:03;;;;;;;9.25;5.35;;;7.90;99.90;;;;;;6218719;23;20145;-63
2022/02/08 09:11:47;;;;;;;8.40;5.60;;;8.00;99.90;;;;;;6218538;23;20540;-63
2022/02/08 09:14:14;;;;;;;6.70;5.00;;;8.10;99.90;;;;;;6217952;23;20679;-63
2022/02/08 09:16:51;;;;;;;7.70;4.97;;;8.10;99.90;;;;;;6217770;23;20160;-63
2022/02/08 09:25:15;;;;;;;8.30;4.53;;;8.20;99.90;;;;;;6216922;23;20142;-62
2022/02/08 09:27:56;;;;;;;6.38;4.35;;;8.20;99.90;;;;;;6217226;23;20168;-63
2022/02/08 09:30:31;;;;;;;6.65;4.38;;;8.30;99.90;;;;;;6216934;23;20133;-63
2022/02/08 09:32:57;;;;;;;5.82;4.57;;;8.30;99.90;;;;;;6216941;23;20549;-63
2022/02/08 09:35:22;;;;;;;5.68;4.00;;;8.40;99.90;;;;;;6216902;23;20137;-63
2022/02/08 09:37:48;;;;;;;6.38;4.07;;;8.40;99.90;;;;;;6217022;23;20155;-63
2022/02/08 09:40:18;;;;;;;5.18;3.70;;;8.40;99.90;;;;;;6216623;23;20198;-63
2022/02/08 09:42:44;;;;;;;5.45;3.63;;;8.30;99.90;;;;;;6217214;23;20206;-64
2022/02/08 09:45:14;;;;;;;5.85;4.07;;;8.40;99.90;;;;;;6217052;23;20168;-64
2022/02/08 09:47:45;;;;;;;7.63;4.20;;;8.40;99.90;;;;;;6216838;23;20223;-64
2022/02/08 09:50:20;;;;;;;5.60;3.67;;;8.40;99.90;;;;;;6217294;23;20199;-64
2022/02/08 09:52:50;;;;;;;4.78;3.58;;;8.40;99.90;;;;;;6218153;23;20125;-63
2022/02/08 09:55:16;;;;;;;5.07;3.40;;;8.40;99.90;;;;;;6218268;23;20138;-62
2022/02/08 09:57:42;;;;;;;5.95;4.10;;;8.50;99.90;;;;;;6217585;23;20145;-63
2022/02/08 10:00:08;;;;;;;5.80;3.88;;;8.50;99.90;;;;;;6217951;23;20155;-64
2022/02/08 10:02:35;;;;;;;6.82;3.30;;;8.50;99.90;;;;;;6218265;23;20169;-63
2022/02/08 10:05:03;;;;;;;3.47;3.03;;;8.50;99.90;;;;;;6218316;23;20180;-63
2022/02/08 10:07:32;;;;;;;6.20;3.53;;;8.50;99.90;;;;;;6218413;23;20184;-62
2022/02/08 10:09:58;;;;;;;5.63;3.35;;;8.50;99.90;;;;;;6217897;23;20144;-63
2022/02/08 10:12:30;;;;;;;4.85;3.17;;;8.50;99.90;;;;;;6217975;23;20179;-64
2022/02/08 10:21:23;;;;;;;3.83;3.30;;;8.50;99.90;;;;;;6218765;23;20267;-63
2022/02/08 10:23:11;;;;;;;3.53;3.17;;;8.50;99.90;;;;;;6218760;23;20157;-63
2022/02/08 10:25:50;;;;;;;3.85;3.22;;;8.50;99.90;;;;;;6225811;23;20141;-63
2022/02/08 10:28:40;;;;;;;4.03;2.60;;;8.50;99.90;;;;;;6219092;23;20199;-62
2022/02/08 10:39:16;;;;;;;5.65;3.13;;;8.50;99.90;;;;;;6217317;23;20137;-61
2022/02/08 10:41:47;;;;;;;3.47;2.85;;;8.50;99.90;;;;;;6216933;23;20187;-63
2022/02/08 10:44:12;;;;;;;3.63;2.35;;;8.50;99.90;;;;;;6216425;23;20144;-63
2022/02/08 10:46:38;;;;;;;2.67;2.47;;;8.50;99.90;;;;;;6216467;23;20169;-62
2022/02/08 10:49:06;;;;;;;3.35;2.65;;;8.50;99.90;;;;;;6216406;23;20430;-62
2022/02/08 10:51:38;;;;;;;2.75;2.33;;;8.50;99.90;;;;;;6216227;23;20523;-64
2022/02/08 10:54:09;;;;;;;2.92;2.40;;;8.50;99.90;;;;;;6216605;23;20139;-64
2022/02/08 10:56:38;;;;;;;2.38;2.10;;;8.40;99.90;;;;;;6216496;23;20137;-62
2022/02/08 10:59:15;;;;;;;2.63;1.88;;;8.40;99.90;;;;;;6216439;23;20148;-64
2022/02/08 11:01:50;;;;;;;2.80;2.00;;;8.40;99.90;;;;;;6216107;23;20549;-63
2022/02/08 11:04:23;;;;;;;2.08;1.67;;;8.40;99.90;;;;;;6216544;23;20163;-62
2022/02/08 11:07:10;;;;;;;3.35;2.00;;;8.40;99.90;;;;;;6216302;23;20165;-63
2022/02/08 11:09:51;;;;;;;2.33;1.73;;;8.40;99.90;;;;;;6216581;23;20134;-63
2022/02/08 11:12:54;;;;;;;1.77;1.20;;;8.40;99.90;;;;;;6216660;23;20129;-64
2022/02/08 11:15:43;;;;;;;1.77;1.13;;;8.40;99.90;;;;;;6216573;23;20168;-63
2022/02/08 11:18:42;;;;;;;1.85;1.20;;;8.40;99.90;;;;;;6216360;23;20133;-63
2022/02/08 11:21:42;;;;;;;1.10;0.90;;;8.40;99.90;;;;;;6216451;23;20187;-62
2022/02/08 11:26:42;;;;;;;1.30;1.00;;;8.30;99.90;;;;;;6216974;23;20599;-63
2022/02/08 11:29:14;;;;;;;1.70;1.00;;;8.30;99.90;;;;;;6218443;23;20222;-64
2022/02/08 11:31:46;;;;;;;1.95;1.08;;;8.30;99.90;;;;;;6217747;23;20235;-64
2022/02/08 11:53:29;;;;;;;1.00;0.80;;;8.30;99.90;;;;;;6218378;23;20139;-64
2022/02/08 11:56:20;;;;;;;2.72;0.90;;;8.40;99.90;;;;;;6217990;23;20207;-65
2022/02/08 11:59:05;;;;;;;1.10;0.77;;;8.40;99.90;;;;;;6218632;23;20126;-63
2022/02/08 12:07:04;;;;;;;1.50;0.80;;;8.30;99.90;;;;;;6217517;23;20553;-63
2022/02/08 12:09:49;;;;;;;1.48;0.70;;;8.30;99.90;;;;;;6217981;23;20205;-63
2022/02/08 12:30:09;;;;;;;0.93;0.70;;;8.40;99.90;;;;;;6217701;23;20168;-63
2022/02/08 12:57:35;;;;;;;2.00;1.15;;;8.60;99.90;;;;;;6217457;23;20152;-62
2022/02/08 13:02:45;;;;;;;2.45;1.20;;;8.70;99.90;;;;;;6217982;23;20133;-62
2022/02/08 13:06:03;;;;;;;3.80;1.50;;;8.70;99.90;;;;;;6218999;23;20140;-62
2022/02/08 13:18:00;;;;;;;4.68;1.50;;;8.70;99.90;;;;;;6218430;23;20136;-63
2022/02/08 13:20:01;;;;;;;4.00;1.40;;;8.70;99.90;;;;;;6217584;23;20224;-63
2022/02/08 14:03:30;;;;;;;6.05;1.90;;;8.30;99.90;;;;;;6216653;23;20169;-63
2022/02/08 14:05:54;;;;;;;7.90;2.15;;;8.30;99.90;;;;;;6216820;23;20159;-63
2022/02/08 14:13:42;;;;;;;8.93;2.20;;;8.20;99.90;;;;;;6217278;23;20149;-63
2022/02/08 14:16:31;;;;;;;4.65;2.05;;;8.10;99.90;;;;;;6217492;23;20462;-63
2022/02/08 14:21:56;;;;;;;6.65;2.65;;;8.10;99.90;;;;;;6216750;23;20132;-64
2022/02/08 14:29:53;;;;;;;7.53;2.60;;;8.10;99.90;;;;;;6216334;23;20137;-62
2022/02/08 14:32:49;;;;;;;4.53;2.30;;;8.10;99.90;;;;;;6216669;23;20184;-62
2022/02/08 14:49:27;;;;;;;10.93;2.72;;;8.20;99.90;;;;;;6216366;23;20139;-63
2022/02/08 15:00:08;;;;;;;13.85;2.92;;;8.20;99.90;;;;;;6216413;23;20184;-63
2022/02/08 15:08:20;;;;;;;14.80;3.28;;;8.30;99.90;;;;;;6201707;23;20184;-63
2022/02/08 15:10:51;;;;;;;10.35;3.22;;;8.30;99.90;;;;;;6219318;23;20163;-62
2022/02/08 15:13:19;;;;;;;8.65;2.90;;;8.30;99.90;;;;;;6220691;23;20180;-63
2022/02/08 15:16:02;;;;;;;10.02;2.60;;;8.30;99.90;;;;;;6220823;23;20149;-63
2022/02/08 15:18:29;;;;;;;9.75;2.83;;;8.30;99.90;;;;;;6219490;23;20533;-62
2022/02/08 15:20:55;;;;;;;9.18;2.92;;;8.30;99.90;;;;;;6219570;23;20153;-63
2022/02/08 15:23:22;;;;;;;9.15;2.80;;;8.30;99.90;;;;;;6219841;23;20148;-63
2022/02/08 15:25:54;;;;;;;9.10;2.92;;;8.20;99.90;;;;;;6219900;23;20161;-62
2022/02/08 15:28:22;;;;;;;8.40;3.05;;;8.20;99.90;;;;;;6219821;23;20164;-63
2022/02/08 15:30:47;;;;;;;11.60;2.70;;;8.20;99.90;;;;;;6220188;23;20172;-63
2022/02/08 15:33:13;;;;;;;10.35;3.40;;;8.20;99.90;;;;;;6220754;23;20137;-63
2022/02/08 15:35:38;;;;;;;7.18;2.78;;;8.10;99.90;;;;;;6219887;23;20141;-63
2022/02/08 15:38:05;;;;;;;6.80;2.75;;;8.10;99.90;;;;;;6219447;23;20477;-63
2022/02/08 15:40:32;;;;;;;6.97;2.97;;;8.10;99.90;;;;;;6219840;23;20287;-63
2022/02/08 15:42:57;;;;;;;9.00;3.15;;;8.00;99.90;;;;;;6221602;23;20141;-63
2022/02/08 15:45:28;;;;;;;10.30;3.30;;;8.00;99.90;;;;;;6224098;23;20507;-63
2022/02/08 15:47:55;;;;;;;10.90;3.30;;;8.00;99.90;;;;;;6223191;23;20164;-63
2022/02/08 15:50:32;;;;;;;9.45;3.45;;;8.00;99.90;;;;;;6223182;23;20149;-63
2022/02/08 15:53:26;;;;;;;9.13;3.00;;;8.00;99.90;;;;;;6222416;23;20133;-63
2022/02/08 15:56:20;;;;;;;11.50;3.17;;;8.00;99.90;;;;;;6220859;23;20125;-64
2022/02/08 16:01:11;;;;;;;14.30;3.22;;;8.00;99.90;;;;;;6221276;23;20216;-64
2022/02/08 16:08:55;;;;;;;5.38;2.75;;;8.00;99.90;;;;;;6224451;23;20184;-63
2022/02/08 16:11:42;;;;;;;6.55;2.60;;;8.00;99.90;;;;;;6225973;23;20156;-63
2022/02/08 16:46:16;;;;;;;12.32;3.60;;;7.80;99.90;;;;;;6223968;23;20143;-62
2022/02/08 16:49:06;;;;;;;14.60;3.38;;;7.80;99.90;;;;;;6224479;23;20188;-63
2022/02/08 16:54:25;;;;;;;11.57;2.70;;;7.70;99.90;;;;;;6224745;23;20136;-63
2022/02/08 16:57:17;;;;;;;15.02;3.75;;;7.70;99.90;;;;;;6228735;23;20129;-63
2022/02/08 16:59:40;;;;;;;15.65;3.35;;;7.70;99.90;;;;;;6226111;23;20149;-63
2022/02/08 17:02:08;;;;;;;12.32;3.50;;;7.70;99.90;;;;;;6225021;23;20140;-63
2022/02/08 17:04:35;;;;;;;11.07;3.00;;;7.60;99.90;;;;;;6221377;23;20149;-63
2022/02/08 17:07:01;;;;;;;13.88;3.10;;;7.60;99.90;;;;;;6219696;23;20179;-63
2022/02/08 17:12:09;;;;;;;14.10;3.13;;;7.50;99.90;;;;;;6220701;23;20151;-63
2022/02/08 17:15:09;;;;;;;15.55;4.20;;;7.50;99.90;;;;;;6222550;23;20159;-63
2022/02/08 17:38:18;;;;;;;15.90;3.47;;;7.40;99.90;;;;;;6220454;23;20191;-63
2022/02/08 17:47:53;;;;;;;19.27;3.53;;;7.40;99.90;;;;;;6219363;23;20192;-62
2022/02/08 17:50:20;;;;;;;16.88;4.45;;;7.40;99.90;;;;;;6220613;23;20554;-63
2022/02/08 17:52:47;;;;;;;14.80;3.50;;;7.40;99.90;;;;;;6220575;23;20141;-63
2022/02/08 17:55:13;;;;;;;11.75;3.15;;;7.40;99.90;;;;;;6224474;23;20155;-63
2022/02/08 17:57:40;;;;;;;12.13;3.35;;;7.40;99.90;;;;;;6223420;23;20141;-63
2022/02/08 18:00:07;;;;;;;18.75;4.07;;;7.50;99.90;;;;;;6224323;23;20141;-63
2022/02/08 18:02:33;;;;;;;14.10;3.70;;;7.50;99.90;;;;;;6223613;23;20160;-64
2022/02/08 18:05:00;;;;;;;13.00;3.65;;;7.50;99.90;;;;;;6224673;23;20137;-63
2022/02/08 18:07:27;;;;;;;14.32;3.63;;;7.50;99.90;;;;;;6223943;23;20161;-62
2022/02/08 18:09:54;;;;;;;20.23;3.55;;;7.50;99.90;;;;;;6223499;23;20173;-62
2022/02/08 18:12:21;;;;;;;14.27;3.58;;;7.50;99.90;;;;;;6222366;23;20141;-63
2022/02/08 18:15:03;;;;;;;13.20;3.42;;;7.50;99.90;;;;;;6221387;23;20145;-63
2022/02/08 18:17:36;;;;;;;16.92;4.40;;;7.50;99.90;;;;;;6224294;23;20232;-63
2022/02/08 18:20:49;;;;;;;10.18;3.47;;;7.50;99.90;;;;;;6221719;23;20224;-63
2022/02/08 18:23:18;;;;;;;13.82;3.40;;;7.50;99.90;;;;;;6216757;23;20573;-62
2022/02/08 18:55:33;;;;;;;17.42;3.70;;;7.50;99.90;;;;;;6221613;23;20132;-63
2022/02/08 18:56:26;;;;;;;13.95;3.75;;;7.50;99.90;;;;;;6221313;23;20206;-63
2022/02/08 19:05:19;;;;;;;12.95;3.28;;;7.50;99.90;;;;;;6219828;23;20207;-62
2022/02/08 19:12:27;;;;;;;14.10;3.65;;;7.50;99.90;;;;;;6220622;23;20152;-63
2022/02/08 19:17:50;;;;;;;14.52;3.13;;;7.60;99.90;;;;;;6221351;23;20211;-63
2022/02/08 19:20:41;;;;;;;17.23;4.15;;;7.60;99.90;;;;;;6221947;23;20168;-64
2022/02/08 19:23:02;;;;;;;16.88;3.90;;;7.60;99.90;;;;;;6217951;23;20152;-63
2022/02/08 19:25:27;;;;;;;12.88;3.80;;;7.60;99.90;;;;;;6219480;23;20445;-63
2022/02/08 19:27:55;;;;;;;15.60;3.15;;;7.60;99.90;;;;;;6218487;23;20463;-63
2022/02/08 19:30:20;;;;;;;14.38;3.60;;;7.60;99.90;;;;;;6219492;23;20140;-63
2022/02/08 19:32:46;;;;;;;11.10;3.67;;;7.60;99.90;;;;;;6218191;23;20173;-63
2022/02/08 19:35:13;;;;;;;11.70;3.00;;;7.60;99.90;;;;;;6220182;23;20137;-63
2022/02/08 19:37:39;;;;;;;16.85;3.35;;;7.60;99.90;;;;;;6218524;23;20612;-62
2022/02/08 19:40:06;;;;;;;12.95;3.20;;;7.60;99.90;;;;;;6223666;23;20140;-62
2022/02/08 19:42:33;;;;;;;15.20;3.85;;;7.60;99.90;;;;;;6218290;23;20183;-62
2022/02/08 19:45:08;;;;;;;16.40;3.80;;;7.60;99.90;;;;;;6216802;23;20145;-63
2022/02/08 19:47:34;;;;;;;16.65;3.97;;;7.60;99.90;;;;;;6216906;23;20169;-64
2022/02/08 19:49:59;;;;;;;20.75;3.90;;;7.60;99.90;;;;;;6218011;23;20145;-63
2022/02/08 19:52:25;;;;;;;13.65;4.25;;;7.60;99.90;;;;;;6218018;23;20137;-64